Aérodrome :







RETROUVEZ-NOUS SUR...

 
LOGIN :

S'inscrire | Disclaimer

   EN    FR    IT 

 









Légende :    VFR   VFR Marginal   IFR   IFR Intensif   IFR Très Intensif
Visi : 
Plafond : 
>= 8 km
>= 3000ft
5 à 8 km
1000 à 3000 ft
1500m à 5 km
500 à 1000 ft
800 à 1500m
200 à 500 ft
< 800m
< 200 ft
Symboles :   Orages  Brouillard  Fortes neiges  Fortes précipitations  Vent > 20 kt






- Altitude de l'aérodrome : 787 ft
- Code IATA : RUT


KRUT - Rutland - Southern Vermont Regional

DERNIER METAR :
  • 140856Z AUTO 14008KT 10SM CLR M09/M13 A3037 RMK AO2 SLP293 T10891128 58008 FZRANO $

METARs EXPIRÉS :
  • 140756Z AUTO 16003KT 10SM BKN080 BKN110 M09/M12 A3039 RMK AO2 SLP300 T10941122 FZRANO $
  • 140656Z AUTO 12006KT 10SM OVC095 M09/M13 A3039 RMK AO2 SLP300 T10941128 FZRANO $

TAF KRUT
Valide du 14 à 06h jusqu'au 15 à 06h UTC


140520Z 1406/1506 12007KT P6SM OVC110
FM141200 14006KT P6SM OVC090
FM150300 20005KT P6SM SCT100



MET'MAP, la Météo Aéronautique d'un coup d'oeil ! - Copyright ORBIFLY Décembre 2007 - Disclaimer

ORBIFLY MET'MAP TEAM :

Programmation & Développement : Alexandra Zaïnal
Conception & Développement : Baudouin d'Aumeries
Co-Programmation & Développement : Marc-Olivier Méhu
Soutien technique & logistique : Manuel Goepfert

Contact : metmap@orbifly.com




SOURCES & CREDITS :

   NOAA